avis per tempestes more information blitzortung!


avis per Pluja more information rain snow radar


Visita la nostra xarxa de llocs de meteo:

Template documentation
and downloads

And another site



Rain From: 17-08-2018 13:00 Until: 22:59 warning for: Rain Level: Orange info button
Thunderstorms From: 17-08-2018 12:00 Until: 18-08-2018 08:59 warning for: Thunderstorms Level: Yellow info button

Pagina Historial Weather Underground text

Diari Resum Setembre 6, 2017 Unitats:  Imperial    Mètric   Tant
« Previous Dia
SegĂźent Dia »
Diari Setmana Mensual Anual Personalitzada
  Maxima: Minima: Media:
Temperatura: TemperatureC °F 19.3 °F 24.2 °F
Punt de rosada: DewpointC °F 11.3 °F 18.1 °F
Humitat: Humidity % 53 % 69 %
Wind Speed: WindSpeedKMH mph 0.0 mph 5.3 mph
RĂ fegues de vent: WindSpeedGustKMH mph - -
Vent:- - South
Pression baro: PressurehPa in 1015.8 in -
Precipitacions: 0.0 in    
Historical Graphs
 
 
Dades de taula per Setembre 6, 2017
Temps Temperatura Punt de rosada Pression baro Vent Wind Speed RĂ fegues de vent Humitat Rainfall Rate (Hourly)
TemperatureC °F DewpointC °F PressurehPa in Calm     Humidity % HourlyPrecipMM in
00:00 20.8 °F 18.4 °F 1019.9 in SW 1.6 mph 1.6 mph 86 % 0.0 in
00:02 22.6 °F 17.9 °F 1019.9 in WSW 3.7 mph 3.7 mph 75 % 0.0 in
00:10 20.8 °F 18.4 °F 1019.9 in Calm   3.2 mph 86 % 0.0 in
00:20 20.5 °F 18.1 °F 1019.9 in ESE 1.6 mph 3.2 mph 86 % 0.0 in
00:30 20.4 °F 18.0 °F 1019.9 in SSW 1.6 mph 3.2 mph 86 % 0.0 in
00:40 20.1 °F 17.5 °F 1019.9 in SW 3.2 mph 4.8 mph 85 % 0.0 in
00:50 20.0 °F 17.6 °F 1019.9 in Calm   4.8 mph 86 % 0.0 in
01:00 20.0 °F 17.8 °F 1019.9 in Calm     87 % 0.0 in
01:10 20.0 °F 17.8 °F 1019.9 in Calm   1.6 mph 87 % 0.0 in
01:20 20.0 °F 17.8 °F 1019.9 in Calm     87 % 0.0 in
01:30 19.8 °F 17.6 °F 1018.8 in NNE 1.6 mph 1.6 mph 87 % 0.0 in
01:40 19.8 °F 17.8 °F 1019.9 in Calm     88 % 0.0 in
01:50 19.8 °F 17.8 °F 1019.9 in Calm     88 % 0.0 in
02:00 19.8 °F 17.8 °F 1019.9 in Calm     88 % 0.0 in
02:10 19.8 °F 17.8 °F 1018.8 in Calm   1.6 mph 88 % 0.0 in
02:20 19.7 °F 17.7 °F 1018.8 in Calm     88 % 0.0 in
02:30 19.4 °F 17.3 °F 1019.9 in Calm   3.2 mph 88 % 0.0 in
02:40 19.5 °F 17.4 °F 1019.9 in Calm     88 % 0.0 in
02:50 19.5 °F 17.4 °F 1019.9 in Calm   1.6 mph 88 % 0.0 in
03:00 19.3 °F 17.3 °F 1018.8 in Calm   3.2 mph 88 % 0.0 in
03:10 19.3 °F 17.3 °F 1018.8 in Calm   3.2 mph 88 % 0.0 in
03:20 19.3 °F 17.1 °F 1018.8 in SW 3.2 mph 4.8 mph 87 % 0.0 in
03:30 19.3 °F 17.3 °F 1019.9 in Calm   4.8 mph 88 % 0.0 in
03:40 19.3 °F 17.3 °F 1019.9 in SW 1.6 mph 3.2 mph 88 % 0.0 in
03:50 19.6 °F 17.6 °F 1019.9 in SW 1.6 mph 3.2 mph 88 % 0.0 in
04:00 20.6 °F 18.6 °F 1019.9 in Calm   1.6 mph 88 % 0.0 in
04:10 20.7 °F 18.3 °F 1019.9 in SW 1.6 mph 3.2 mph 86 % 0.0 in
04:20 21.0 °F 18.2 °F 1019.9 in SW 1.6 mph 3.2 mph 84 % 0.0 in
04:30 21.9 °F 18.9 °F 1019.9 in Calm   3.2 mph 83 % 0.0 in
04:40 22.7 °F 19.4 °F 1019.9 in Calm   3.2 mph 82 % 0.0 in
04:50 23.9 °F 20.1 °F 1019.9 in ENE 1.6 mph 3.2 mph 79 % 0.0 in
09:54 23.4 °F 19.1 °F 1019.9 in East 3.7 mph 3.7 mph 77 % 0.0 in
09:55 23.4 °F 19.1 °F 1019.9 in East 3.7 mph 3.7 mph 77 % 0.0 in
10:00 23.6 °F 19.3 °F 1019.9 in SSE 5.3 mph 5.3 mph 77 % 0.0 in
10:05 23.5 °F 19.2 °F 1019.9 in SW 3.7 mph 3.7 mph 77 % 0.0 in
10:10 23.5 °F 19.2 °F 1019.9 in SE 1.9 mph 1.9 mph 77 % 0.0 in
10:15 23.7 °F 19.2 °F 1019.9 in SW 3.7 mph 3.7 mph 76 % 0.0 in
10:20 24.0 °F 19.3 °F 1019.9 in South 7.4 mph 7.4 mph 75 % 0.0 in
10:25 24.2 °F 19.5 °F 1020.9 in South 6.1 mph 6.1 mph 75 % 0.0 in
10:30 24.1 °F 19.2 °F 1020.9 in ENE 1.9 mph 1.9 mph 74 % 0.0 in
10:35 24.0 °F 19.1 °F 1020.9 in ESE 4.7 mph 4.7 mph 74 % 0.0 in
10:36 24.0 °F 19.1 °F 1020.9 in SE 3.7 mph 3.7 mph 74 % 0.0 in
10:41 23.8 °F 18.9 °F 1019.9 in WSW 3.7 mph 3.7 mph 74 % 0.0 in
10:46 23.8 °F 18.9 °F 1019.9 in SW 5.6 mph 5.6 mph 74 % 0.0 in
10:51 24.0 °F 18.7 °F 1019.9 in SSE 5.6 mph 5.6 mph 72 % 0.0 in
10:56 24.5 °F 19.3 °F 1020.9 in SW 1.9 mph 1.9 mph 73 % 0.0 in
11:01 24.7 °F 19.3 °F 1020.9 in SW 1.9 mph 1.9 mph 72 % 0.0 in
11:06 24.6 °F 19.0 °F 1020.9 in South 7.4 mph 7.4 mph 71 % 0.0 in
11:11 24.7 °F 19.1 °F 1020.9 in SW 1.9 mph   71 % 0.0 in
11:16 24.9 °F 19.3 °F 1020.9 in NNE 3.9 mph 3.9 mph 71 % 0.0 in
11:21 24.8 °F 19.2 °F 1020.9 in NE 3.7 mph 3.7 mph 71 % 0.0 in
11:26 24.6 °F 19.0 °F 1019.9 in SW 7.4 mph 7.4 mph 71 % 0.0 in
11:31 24.9 °F 19.1 °F 1019.9 in SW 4.7 mph 4.7 mph 70 % 0.0 in
11:36 25.0 °F 18.7 °F 1019.9 in SSE 7.4 mph 7.4 mph 68 % 0.0 in
11:41 25.3 °F 18.7 °F 1019.9 in ENE 3.9 mph   67 % 0.0 in
11:46 25.3 °F 18.5 °F 1019.9 in ESE 5.6 mph 5.6 mph 66 % 0.0 in
11:51 25.5 °F 18.9 °F 1019.9 in NE 5.6 mph 5.6 mph 67 % 0.0 in
11:56 25.5 °F 18.7 °F 1020.9 in NNE 4.7 mph 4.7 mph 66 % 0.0 in
12:01 25.8 °F 18.7 °F 1020.9 in SSE 7.4 mph 7.4 mph 65 % 0.0 in
12:06 26.4 °F 19.6 °F 1020.9 in NNE 3.7 mph 3.7 mph 66 % 0.0 in
12:11 27.0 °F 19.6 °F 1019.9 in SW 5.6 mph 5.6 mph 64 % 0.0 in
12:16 26.9 °F 19.8 °F 1019.9 in WSW 5.6 mph 5.6 mph 65 % 0.0 in
12:21 27.1 °F 19.2 °F 1019.9 in SSE 5.6 mph 5.6 mph 62 % 0.0 in
12:26 27.2 °F 19.3 °F 1018.8 in SW 6.1 mph 6.1 mph 62 % 0.0 in
12:31 27.1 °F 19.2 °F 1018.8 in WSW 6.9 mph 6.9 mph 62 % 0.0 in
12:36 26.8 °F 18.9 °F 1018.8 in South 3.7 mph 3.7 mph 62 % 0.0 in
12:41 26.8 °F 19.2 °F 1019.9 in WSW 6.1 mph 6.1 mph 63 % 0.0 in
12:46 27.0 °F 18.8 °F 1019.9 in West 5.6 mph 5.6 mph 61 % 0.0 in
12:51 27.0 °F 18.6 °F 1019.9 in SW 9.3 mph 9.3 mph 60 % 0.0 in
12:56 27.6 °F 18.9 °F 1019.9 in SSE 3.7 mph 3.7 mph 59 % 0.0 in
13:01 27.6 °F 18.3 °F 1019.9 in East 9.3 mph 9.3 mph 57 % 0.0 in
13:06 27.7 °F 18.4 °F 1019.9 in East 7.4 mph 7.4 mph 57 % 0.0 in
13:11 27.8 °F 18.5 °F 1019.9 in East 5.6 mph 5.6 mph 57 % 0.0 in
13:21 27.7 °F 17.6 °F 1019.9 in ESE 9.3 mph 9.3 mph 54 % 0.0 in
13:26 27.2 °F 17.9 °F 1018.8 in NE 3.7 mph 3.7 mph 57 % 0.0 in
13:31 27.3 °F 18.3 °F 1018.8 in North 1.9 mph 2.3 mph 58 % 0.0 in
13:36 27.3 °F 17.8 °F 1018.8 in East 9.3 mph 9.3 mph 56 % 0.0 in
13:46 27.0 °F 18.1 °F 1018.8 in ENE 9.7 mph 9.7 mph 58 % 0.0 in
13:51 27.3 °F 18.6 °F 1018.8 in ESE 11.1 mph 11.1 mph 59 % 0.0 in
13:56 27.2 °F 18.2 °F 1018.8 in North 9.3 mph 9.3 mph 58 % 0.0 in
14:01 26.9 °F 18.5 °F 1018.8 in East 11.1 mph 11.1 mph 60 % 0.0 in
14:06 26.8 °F 18.7 °F 1018.8 in WSW 5.6 mph 5.6 mph 61 % 0.0 in
14:11 27.4 °F 18.7 °F 1018.8 in SE 4.7 mph 4.7 mph 59 % 0.0 in
14:16 28.0 °F 18.9 °F 1018.8 in SSE 5.6 mph 5.6 mph 58 % 0.0 in
14:21 27.6 °F 18.6 °F 1018.8 in ESE 9.5 mph 9.5 mph 58 % 0.0 in
14:26 27.5 °F 18.5 °F 1017.8 in SSE 4.2 mph 4.2 mph 58 % 0.0 in
14:31 27.4 °F 18.4 °F 1017.8 in SSE 5.6 mph 5.6 mph 58 % 0.0 in
14:36 27.0 °F 18.6 °F 1017.8 in ESE 13.0 mph 13.0 mph 60 % 0.0 in
14:41 26.7 °F 18.6 °F 1018.8 in ESE 9.7 mph 9.7 mph 61 % 0.0 in
14:46 27.0 °F 18.6 °F 1018.8 in SE 10.0 mph 10.0 mph 60 % 0.0 in
14:51 26.8 °F 18.7 °F 1018.8 in ESE 14.8 mph 14.8 mph 61 % 0.0 in
14:56 26.3 °F 18.4 °F 1017.8 in ESE 16.7 mph 16.7 mph 62 % 0.0 in
15:01 26.4 °F 18.6 °F 1017.8 in ESE 12.2 mph 12.2 mph 62 % 0.0 in
15:06 26.4 °F 18.6 °F 1017.8 in ENE 16.7 mph 16.7 mph 62 % 0.0 in
15:11 26.3 °F 18.4 °F 1017.8 in ENE 16.7 mph 16.7 mph 62 % 0.0 in
15:16 26.5 °F 18.6 °F 1017.8 in SE 11.9 mph 11.9 mph 62 % 0.0 in
15:21 26.5 °F 18.4 °F 1017.8 in East 11.1 mph 11.1 mph 61 % 0.0 in
15:26 26.5 °F 18.4 °F 1017.8 in East 11.1 mph 11.1 mph 61 % 0.0 in
15:31 26.5 °F 18.4 °F 1017.8 in SE 11.1 mph 11.1 mph 61 % 0.0 in
15:36 26.5 °F 18.4 °F 1017.8 in ESE 9.5 mph 9.5 mph 61 % 0.0 in
15:41 27.1 °F 18.7 °F 1016.8 in East 7.4 mph 7.4 mph 60 % 0.0 in
15:46 27.6 °F 18.9 °F 1016.8 in SE 4.7 mph 4.7 mph 59 % 0.0 in
15:51 28.1 °F 19.1 °F 1016.8 in SSW 8.7 mph 8.7 mph 58 % 0.0 in
15:56 27.8 °F 18.5 °F 1017.8 in East 7.4 mph 7.4 mph 57 % 0.0 in
16:01 28.1 °F 19.1 °F 1017.8 in SSW 3.7 mph 3.7 mph 58 % 0.0 in
16:06 28.7 °F 19.3 °F 1017.8 in SW 5.6 mph 5.6 mph 57 % 0.0 in
16:11 29.0 °F 19.3 °F 1016.8 in SSE 7.4 mph 7.4 mph 56 % 0.0 in
16:12 29.2 °F 19.2 °F 1016.8 in SW 6.9 mph 6.9 mph 55 % 0.0 in
16:17 29.4 °F 19.4 °F 1016.8 in SE 9.3 mph 9.3 mph 55 % 0.0 in
16:22 28.9 °F 18.7 °F 1017.8 in WSW 5.6 mph 5.6 mph 54 % 0.0 in
16:27 28.6 °F 18.7 °F 1017.8 in SW 10.3 mph 10.3 mph 55 % 0.0 in
16:32 28.9 °F 18.9 °F 1017.8 in SSW 9.3 mph 9.3 mph 55 % 0.0 in
16:33 28.9 °F 18.9 °F 1017.8 in ESE 9.3 mph 9.3 mph 55 % 0.0 in
16:38 29.3 °F 19.1 °F 1016.8 in West 7.6 mph 7.6 mph 54 % 0.0 in
16:43 29.5 °F 18.9 °F 1016.8 in SSW 7.9 mph 7.9 mph 53 % 0.0 in
16:48 29.8 °F 19.2 °F 1016.8 in West 10.0 mph 10.0 mph 53 % 0.0 in
16:53 29.4 °F 18.8 °F 1016.8 in West 14.8 mph 14.8 mph 53 % 0.0 in
16:58 28.8 °F 18.6 °F 1016.8 in SW 7.4 mph 7.4 mph 54 % 0.0 in
17:03 28.6 °F 18.4 °F 1016.8 in SW 11.1 mph 11.1 mph 54 % 0.0 in
17:08 28.4 °F 18.2 °F 1016.8 in SSE 7.4 mph 7.4 mph 54 % 0.0 in
17:18 28.2 °F 18.0 °F 1016.8 in WSW 17.2 mph 17.2 mph 54 % 0.0 in
17:23 27.8 °F 17.9 °F 1015.8 in SSW 13.0 mph 13.0 mph 55 % 0.0 in
17:28 27.3 °F 17.8 °F 1015.8 in South 14.8 mph 14.8 mph 56 % 0.0 in
17:33 27.0 °F 17.5 °F 1015.8 in South 11.1 mph 11.1 mph 56 % 0.0 in
17:38 27.0 °F 17.5 °F 1015.8 in WSW 11.1 mph 11.1 mph 56 % 0.0 in
17:43 27.1 °F 17.8 °F 1015.8 in South 6.9 mph 6.9 mph 57 % 0.0 in
17:48 26.8 °F 17.8 °F 1015.8 in WSW 11.1 mph 11.1 mph 58 % 0.0 in
17:53 26.7 °F 17.8 °F 1015.8 in SW 9.3 mph 9.3 mph 58 % 0.0 in
17:58 26.7 °F 18.0 °F 1015.8 in SSW 9.3 mph 9.3 mph 59 % 0.0 in
18:03 26.7 °F 18.0 °F 1015.8 in SW 14.8 mph 14.8 mph 59 % 0.0 in
18:08 26.5 °F 18.1 °F 1016.8 in South 7.4 mph 7.4 mph 60 % 0.0 in
18:13 26.4 °F 18.0 °F 1016.8 in SSW 11.1 mph 11.1 mph 60 % 0.0 in
18:18 26.4 °F 18.0 °F 1016.8 in SW 4.7 mph 4.7 mph 60 % 0.0 in
18:19 26.4 °F 18.0 °F 1016.8 in SW 11.1 mph 11.1 mph 60 % 0.0 in
18:24 26.2 °F 17.8 °F 1015.8 in WSW 11.1 mph 11.1 mph 60 % 0.0 in
18:29 26.0 °F 17.9 °F 1015.8 in SSW 11.1 mph 11.1 mph 61 % 0.0 in
18:34 25.8 °F 17.7 °F 1015.8 in SW 13.0 mph 13.0 mph 61 % 0.0 in
18:39 25.9 °F 18.1 °F 1016.8 in ESE 5.6 mph 5.6 mph 62 % 0.0 in
18:44 26.0 °F 18.2 °F 1016.8 in SW 1.9 mph 2.3 mph 62 % 0.0 in
18:49 26.2 °F 18.1 °F 1016.8 in SW 22.2 mph 22.2 mph 61 % 0.0 in
18:54 26.0 °F 18.2 °F 1016.8 in West 11.4 mph 11.4 mph 62 % 0.0 in
18:59 25.7 °F 17.9 °F 1016.8 in South 7.4 mph 7.4 mph 62 % 0.0 in
19:04 25.6 °F 17.8 °F 1016.8 in SW 9.3 mph 9.3 mph 62 % 0.0 in
19:09 25.4 °F 17.6 °F 1016.8 in SW 13.0 mph 13.0 mph 62 % 0.0 in
19:10 22.8 °F 18.8 °F 1017.8 in Calm     78 % 0.0 in
19:14 25.2 °F 17.7 °F 1016.8 in South 11.1 mph 11.1 mph 63 % 0.0 in
19:19 25.2 °F 17.7 °F 1016.8 in SSW 5.6 mph 5.6 mph 63 % 0.0 in
19:24 25.1 °F 17.8 °F 1016.8 in South 7.4 mph 7.4 mph 64 % 0.0 in
19:29 25.0 °F 17.7 °F 1016.8 in SSW 11.1 mph 11.1 mph 64 % 0.0 in
19:30 22.7 °F 18.7 °F 1017.8 in Calm     78 % 0.0 in
19:34 24.9 °F 17.9 °F 1016.8 in South 9.3 mph 9.3 mph 65 % 0.0 in
19:39 24.8 °F 17.8 °F 1017.8 in SW 5.6 mph 5.6 mph 65 % 0.0 in
19:40 22.7 °F 18.9 °F 1017.8 in Calm     79 % 0.0 in
19:44 24.6 °F 17.8 °F 1017.8 in SW 9.3 mph 9.3 mph 66 % 0.0 in
19:45 22.7 °F 18.9 °F 1017.8 in Calm     79 % 0.0 in
19:49 24.5 °F 17.7 °F 1017.8 in WSW 6.1 mph 6.1 mph 66 % 0.0 in
19:54 24.4 °F 17.9 °F 1017.8 in West 5.6 mph 5.6 mph 67 % 0.0 in
19:55 22.7 °F 18.9 °F 1017.8 in Calm   1.6 mph 79 % 0.0 in
19:59 24.3 °F 17.6 °F 1017.8 in West 10.0 mph 10.0 mph 66 % 0.0 in
20:04 24.2 °F 17.7 °F 1017.8 in SSW 3.7 mph 3.7 mph 67 % 0.0 in
20:05 22.6 °F 18.8 °F 1017.8 in Calm     79 % 0.0 in
20:09 24.1 °F 17.6 °F 1017.8 in WSW 3.7 mph 3.7 mph 67 % 0.0 in
20:14 24.1 °F 17.6 °F 1017.8 in SSW 5.6 mph 5.6 mph 67 % 0.0 in
20:15 22.5 °F 18.7 °F 1017.8 in Calm     79 % 0.0 in
20:19 24.1 °F 17.8 °F 1017.8 in WSW 2.6 mph   68 % 0.0 in
20:24 24.1 °F 17.8 °F 1017.8 in SSE 3.9 mph 3.9 mph 68 % 0.0 in
20:25 22.3 °F 18.7 °F 1017.8 in Calm     80 % 0.0 in
20:29 24.1 °F 17.8 °F 1017.8 in SW 5.6 mph 5.6 mph 68 % 0.0 in
20:34 24.0 °F 17.7 °F 1017.8 in SW 3.7 mph 3.7 mph 68 % 0.0 in
20:35 22.1 °F 18.5 °F 1017.8 in NNW 1.6 mph 3.2 mph 80 % 0.0 in
20:39 24.0 °F 17.7 °F 1017.8 in South 5.6 mph 5.6 mph 68 % 0.0 in
20:44 24.0 °F 17.7 °F 1017.8 in SW 3.9 mph 3.9 mph 68 % 0.0 in
20:45 22.0 °F 18.4 °F 1017.8 in NNE 1.6 mph 3.2 mph 80 % 0.0 in
20:49 24.0 °F 17.7 °F 1017.8 in SSW 5.6 mph 5.6 mph 68 % 0.0 in
20:54 23.9 °F 18.1 °F 1017.8 in SSW 1.9 mph 1.9 mph 70 % 0.0 in
20:55 21.9 °F 18.3 °F 1017.8 in Calm   1.6 mph 80 % 0.0 in
20:59 23.8 °F 17.8 °F 1017.8 in South 5.6 mph 5.6 mph 69 % 0.0 in
21:04 23.7 °F 17.9 °F 1017.8 in WSW 5.6 mph 5.6 mph 70 % 0.0 in
21:05 22.0 °F 18.8 °F 1017.8 in ENE 1.6 mph 3.2 mph 82 % 0.0 in
21:09 23.6 °F 17.8 °F 1017.8 in SW 7.4 mph 7.4 mph 70 % 0.0 in
21:14 23.5 °F 17.7 °F 1017.8 in WSW 3.7 mph 3.7 mph 70 % 0.0 in
21:15 21.9 °F 18.5 °F 1017.8 in ENE 1.6 mph 3.2 mph 81 % 0.0 in
21:19 23.5 °F 17.7 °F 1017.8 in SW 3.9 mph 3.9 mph 70 % 0.0 in
21:24 23.6 °F 18.1 °F 1017.8 in SW 3.2 mph 3.2 mph 71 % 0.0 in
21:25 21.8 °F 18.6 °F 1017.8 in East 3.2 mph 3.2 mph 82 % 0.0 in
21:29 23.6 °F 18.1 °F 1017.8 in WSW 3.7 mph 3.7 mph 71 % 0.0 in
21:34 23.5 °F 17.9 °F 1017.8 in SW 3.9 mph 3.9 mph 71 % 0.0 in
21:35 21.6 °F 18.6 °F 1017.8 in East 1.6 mph 4.8 mph 83 % 0.0 in
21:39 23.4 °F 17.8 °F 1017.8 in SW 4.7 mph 4.7 mph 71 % 0.0 in
21:44 23.3 °F 17.7 °F 1017.8 in WSW 5.6 mph 5.6 mph 71 % 0.0 in
21:45 21.3 °F 18.1 °F 1017.8 in ENE 4.8 mph 6.4 mph 82 % 0.0 in
21:49 23.3 °F 17.9 °F 1017.8 in WSW 5.6 mph 5.6 mph 72 % 0.0 in
21:54 23.3 °F 17.9 °F 1017.8 in SW 2.6 mph 2.6 mph 72 % 0.0 in
21:55 21.0 °F 18.0 °F 1017.8 in ENE 3.2 mph 4.8 mph 83 % 0.0 in
21:59 23.2 °F 18.1 °F 1017.8 in SW 3.5 mph 3.5 mph 73 % 0.0 in
22:04 23.1 °F 18.0 °F 1017.8 in SW 1.9 mph   73 % 0.0 in
22:05 21.0 °F 18.0 °F 1017.8 in NE 1.6 mph 4.8 mph 83 % 0.0 in
22:09 23.1 °F 18.0 °F 1017.8 in Calm     73 % 0.0 in
22:14 23.0 °F 17.9 °F 1017.8 in SW 4.2 mph 4.2 mph 73 % 0.0 in
22:15 21.0 °F 18.0 °F 1017.8 in NNE 1.6 mph 3.2 mph 83 % 0.0 in
22:19 23.0 °F 17.9 °F 1017.8 in SW 1.9 mph   73 % 0.0 in
22:24 22.9 °F 18.0 °F 1017.8 in SW 1.9 mph   74 % 0.0 in
22:25 21.0 °F 18.0 °F 1017.8 in NE 1.6 mph 3.2 mph 83 % 0.0 in
22:29 22.9 °F 18.0 °F 1017.8 in SW 5.6 mph 5.6 mph 74 % 0.0 in
22:34 22.8 °F 17.9 °F 1017.8 in SW 1.9 mph 1.9 mph 74 % 0.0 in
22:35 21.0 °F 18.2 °F 1017.8 in NE 1.6 mph 3.2 mph 84 % 0.0 in
22:39 22.7 °F 17.8 °F 1017.8 in SW 1.9 mph 1.9 mph 74 % 0.0 in
22:44 22.7 °F 17.8 °F 1017.8 in WSW 3.7 mph 3.7 mph 74 % 0.0 in
22:45 20.8 °F 17.6 °F 1017.8 in North 1.6 mph 3.2 mph 82 % 0.0 in
22:49 22.6 °F 17.9 °F 1017.8 in WSW 3.7 mph 3.7 mph 75 % 0.0 in
22:55 20.5 °F 15.9 °F 1017.8 in NW 3.2 mph 4.8 mph 75 % 0.0 in
22:59 22.6 °F 17.9 °F 1017.8 in WSW 1.9 mph   75 % 0.0 in
23:04 22.7 °F 18.2 °F 1017.8 in WSW 1.9 mph 1.9 mph 76 % 0.0 in
23:05 20.6 °F 14.5 °F 1017.8 in WNW 3.2 mph 4.8 mph 68 % 0.0 in
23:09 22.7 °F 18.2 °F 1017.8 in WSW 3.7 mph 3.7 mph 76 % 0.0 in
23:14 22.7 °F 18.2 °F 1017.8 in SW 1.9 mph 1.9 mph 76 % 0.0 in
23:15 20.4 °F 13.6 °F 1016.8 in West 3.2 mph 4.8 mph 65 % 0.0 in
23:19 22.7 °F 18.2 °F 1017.8 in SW 1.9 mph   76 % 0.0 in
23:24 22.8 °F 18.3 °F 1016.8 in SW 5.6 mph 5.6 mph 76 % 0.0 in
23:25 20.2 °F 12.9 °F 1016.8 in West 1.6 mph 1.6 mph 63 % 0.0 in
23:29 22.8 °F 18.6 °F 1016.8 in SW 4.7 mph 4.7 mph 77 % 0.0 in
23:34 22.8 °F 18.3 °F 1016.8 in West 5.3 mph 5.3 mph 76 % 0.0 in
23:35 19.9 °F 12.4 °F 1016.8 in NW 1.6 mph 4.8 mph 62 % 0.0 in
23:39 22.9 °F 18.7 °F 1017.8 in West 3.7 mph 3.7 mph 77 % 0.0 in
23:44 22.9 °F 18.7 °F 1017.8 in SW 3.7 mph 3.7 mph 77 % 0.0 in
23:45 19.6 °F 11.9 °F 1015.8 in West 3.2 mph 6.4 mph 61 % 0.0 in
23:49 22.8 °F 18.6 °F 1017.8 in WSW 3.7 mph 3.7 mph 77 % 0.0 in
23:54 22.8 °F 18.6 °F 1017.8 in SW 2.6 mph 2.6 mph 77 % 0.0 in
23:55 19.3 °F 11.3 °F 1015.8 in West 1.6 mph 6.4 mph 60 % 0.0 in
23:59 22.8 °F 18.6 °F 1017.8 in WSW 3.7 mph 3.7 mph 77 % 0.0 in
Meteo Sesrovires
Elogis d' Weather Underground - 2 mb

Guio original per  Jim McMurry - jmcmurry@mwt.net Adaptat per a la plantilla per  Wim van der Kuil - Leuven-Template.eu

Trobareu la nostra informacio del temps tambe a:

Weather Underground

AWEKAS